Time,TemperatureF,DewpointF,PressureIn,WindDirection,WindDirectionDegrees,WindSpeedMPH,WindSpeedGustMPH,Humidity,HourlyPrecipIn,Conditions,Clouds,dailyrainin,SolarRadiationWatts/m^2,SoftwareType,DateUTC
2015-09-01 00:10:00,69.2,58.0,29.93,WNW,300,10.0,14.0,68,0.00,,,0.00,0,weatherlink.com 1.10,2015-09-01 04:10:00,
2015-09-01 00:25:00,68.9,58.0,29.93,NNW,340,4.0,12.0,69,0.00,,,0.00,0,weatherlink.com 1.10,2015-09-01 04:25:00,
2015-09-01 00:40:00,69.0,58.0,29.94,NNW,329,14.0,18.0,69,0.00,,,0.00,0,weatherlink.com 1.10,2015-09-01 04:40:00,
2015-09-01 00:55:00,68.8,58.0,29.94,NW,325,5.0,14.0,69,0.00,,,0.00,0,weatherlink.com 1.10,2015-09-01 04:55:00,
2015-09-01 01:10:00,68.5,59.0,29.93,NW,304,4.0,9.0,71,0.00,,,0.00,0,weatherlink.com 1.10,2015-09-01 05:10:00,
2015-09-01 01:25:00,68.2,58.0,29.93,NNW,331,3.0,9.0,71,0.00,,,0.00,0,weatherlink.com 1.10,2015-09-01 05:25:00,
2015-09-01 01:40:00,68.2,58.0,29.93,NNW,346,9.0,13.0,69,0.00,,,0.00,0,weatherlink.com 1.10,2015-09-01 05:40:00,
2015-09-01 01:55:00,68.0,58.0,29.94,NW,316,6.0,13.0,71,0.00,,,0.00,0,weatherlink.com 1.10,2015-09-01 05:55:00,
2015-09-01 02:10:00,67.8,58.0,29.96,NW,309,5.0,15.0,72,0.00,,,0.00,0,weatherlink.com 1.10,2015-09-01 06:10:00,
2015-09-01 02:25:00,67.6,59.0,29.96,NNW,346,8.0,15.0,74,0.00,,,0.00,0,weatherlink.com 1.10,2015-09-01 06:25:00,
2015-09-01 02:40:00,67.5,59.0,29.97,NNW,348,13.0,17.0,74,0.00,,,0.00,0,weatherlink.com 1.10,2015-09-01 06:40:00,
2015-09-01 02:56:00,67.3,59.0,29.97,NNW,348,12.0,14.0,75,0.00,,,0.00,0,weatherlink.com 1.10,2015-09-01 06:56:00,
2015-09-01 03:11:00,64.5,58.0,29.98,North,11,2.0,6.0,79,0.00,,,0.00,0,weatherlink.com 1.10,2015-09-01 07:11:00,
2015-09-01 03:26:00,63.6,58.0,29.98,North,360,3.0,9.0,82,0.00,,,0.00,0,weatherlink.com 1.10,2015-09-01 07:26:00,
2015-09-01 03:41:00,62.6,56.0,29.99,ESE,110,4.0,6.0,80,0.00,,,0.00,0,weatherlink.com 1.10,2015-09-01 07:41:00,
2015-09-01 03:56:00,60.5,56.0,29.99,East,92,0.0,5.0,84,0.00,,,0.00,0,weatherlink.com 1.10,2015-09-01 07:56:00,
2015-09-01 04:11:00,58.5,55.0,30.00,SE,131,3.0,7.0,88,0.00,,,0.00,0,weatherlink.com 1.10,2015-09-01 08:11:00,
2015-09-01 04:26:00,58.8,56.0,30.01,ESE,110,3.0,5.0,89,0.00,,,0.00,0,weatherlink.com 1.10,2015-09-01 08:26:00,
2015-09-01 04:41:00,60.0,57.0,30.00,ESE,103,1.0,4.0,88,0.00,,,0.00,0,weatherlink.com 1.10,2015-09-01 08:41:00,
2015-09-01 04:56:00,58.7,55.0,30.01,SE,136,0.0,5.0,87,0.00,,,0.00,0,weatherlink.com 1.10,2015-09-01 08:56:00,
2015-09-01 05:11:00,57.9,55.0,30.01,SSE,147,2.0,4.0,90,0.00,,,0.00,0,weatherlink.com 1.10,2015-09-01 09:11:00,
2015-09-01 05:26:00,57.2,54.0,30.02,SSE,159,4.0,6.0,90,0.00,,,0.00,0,weatherlink.com 1.10,2015-09-01 09:26:00,
2015-09-01 05:41:00,56.7,54.0,30.02,SE,140,3.0,5.0,91,0.00,,,0.00,0,weatherlink.com 1.10,2015-09-01 09:41:00,
2015-09-01 05:56:00,57.0,55.0,30.03,ESE,110,5.0,5.0,92,0.00,,,0.00,0,weatherlink.com 1.10,2015-09-01 09:56:00,
2015-09-01 06:11:00,59.2,55.0,30.03,East,88,3.0,6.0,85,0.00,,,0.00,11,weatherlink.com 1.10,2015-09-01 10:11:00,
2015-09-01 06:26:00,57.9,54.0,30.04,SSE,147,5.0,7.0,85,0.00,,,0.00,21,weatherlink.com 1.10,2015-09-01 10:26:00,
2015-09-01 06:41:00,56.5,53.0,30.04,SSE,163,3.0,5.0,89,0.00,,,0.00,25,weatherlink.com 1.10,2015-09-01 10:41:00,
2015-09-01 06:56:00,56.7,54.0,30.05,SSW,208,3.0,4.0,89,0.00,,,0.00,39,weatherlink.com 1.10,2015-09-01 10:56:00,
2015-09-01 07:11:00,57.4,54.0,30.05,South,190,0.0,3.0,88,0.00,,,0.00,90,weatherlink.com 1.10,2015-09-01 11:11:00,
2015-09-01 07:27:00,57.7,54.0,30.06,South,184,1.0,4.0,87,0.00,,,0.00,160,weatherlink.com 1.10,2015-09-01 11:27:00,
2015-09-01 07:41:00,58.9,55.0,30.06,SE,132,0.0,2.0,86,0.00,,,0.00,195,weatherlink.com 1.10,2015-09-01 11:41:00,
2015-09-01 07:56:00,60.2,55.0,30.07,SE,132,0.0,0.0,84,0.00,,,0.00,211,weatherlink.com 1.10,2015-09-01 11:56:00,
2015-09-01 08:11:00,61.4,56.0,30.07,East,90,0.0,2.0,83,0.00,,,0.00,271,weatherlink.com 1.10,2015-09-01 12:11:00,
2015-09-01 08:26:00,61.5,57.0,30.06,NE,41,2.0,7.0,85,0.00,,,0.00,271,weatherlink.com 1.10,2015-09-01 12:26:00,
2015-09-01 08:41:00,61.4,57.0,30.06,NE,38,6.0,8.0,85,0.00,,,0.00,269,weatherlink.com 1.10,2015-09-01 12:41:00,
2015-09-01 08:56:00,61.5,57.0,30.05,NNE,16,6.0,8.0,84,0.00,,,0.00,320,weatherlink.com 1.10,2015-09-01 12:56:00,
2015-09-01 09:11:00,61.7,57.0,30.05,NNE,20,3.0,9.0,84,0.00,,,0.00,345,weatherlink.com 1.10,2015-09-01 13:11:00,
2015-09-01 09:26:00,62.3,58.0,30.06,NNE,18,2.0,8.0,85,0.00,,,0.00,311,weatherlink.com 1.10,2015-09-01 13:26:00,
2015-09-01 09:42:00,62.0,58.0,30.06,NNW,346,9.0,11.0,86,0.00,,,0.00,522,weatherlink.com 1.10,2015-09-01 13:42:00,
2015-09-01 09:57:00,61.8,58.0,30.05,North,355,9.0,11.0,87,0.00,,,0.00,519,weatherlink.com 1.10,2015-09-01 13:57:00,
2015-09-01 10:12:00,62.3,58.0,30.05,North,360,7.0,8.0,85,0.00,,,0.00,510,weatherlink.com 1.10,2015-09-01 14:12:00,
2015-09-01 10:27:00,63.8,55.0,30.06,NNE,33,2.0,7.0,74,0.00,,,0.00,633,weatherlink.com 1.10,2015-09-01 14:27:00,
2015-09-01 10:42:00,64.0,56.0,30.06,North,360,4.0,8.0,76,0.00,,,0.00,659,weatherlink.com 1.10,2015-09-01 14:42:00,
2015-09-01 10:57:00,63.9,57.0,30.05,North,355,6.0,8.0,77,0.00,,,0.00,693,weatherlink.com 1.10,2015-09-01 14:57:00,
2015-09-01 11:12:00,63.8,57.0,30.05,North,350,3.0,8.0,79,0.00,,,0.00,691,weatherlink.com 1.10,2015-09-01 15:12:00,
2015-09-01 11:27:00,63.3,58.0,30.05,NNW,343,9.0,10.0,82,0.00,,,0.00,728,weatherlink.com 1.10,2015-09-01 15:27:00,
2015-09-01 11:42:00,62.9,57.0,30.05,North,355,7.0,11.0,81,0.00,,,0.00,737,weatherlink.com 1.10,2015-09-01 15:42:00,
2015-09-01 11:57:00,63.0,57.0,30.04,North,355,5.0,9.0,81,0.00,,,0.00,754,weatherlink.com 1.10,2015-09-01 15:57:00,
2015-09-01 12:12:00,63.2,57.0,30.03,NNW,340,6.0,8.0,80,0.00,,,0.00,770,weatherlink.com 1.10,2015-09-01 16:12:00,
2015-09-01 12:27:00,63.5,57.0,30.03,NNW,348,4.0,7.0,78,0.00,,,0.00,780,weatherlink.com 1.10,2015-09-01 16:27:00,
2015-09-01 12:42:00,63.5,57.0,30.02,NNE,21,3.0,5.0,79,0.00,,,0.00,745,weatherlink.com 1.10,2015-09-01 16:42:00,
2015-09-01 12:57:00,63.9,57.0,30.01,North,355,3.0,6.0,79,0.00,,,0.00,780,weatherlink.com 1.10,2015-09-01 16:57:00,
2015-09-01 13:12:00,64.7,58.0,30.01,North,360,1.0,6.0,79,0.00,,,0.00,766,weatherlink.com 1.10,2015-09-01 17:12:00,
2015-09-01 13:27:00,66.2,58.0,30.01,West,275,0.0,4.0,75,0.00,,,0.00,731,weatherlink.com 1.10,2015-09-01 17:27:00,
2015-09-01 13:42:00,66.4,58.0,30.00,SW,231,1.0,6.0,75,0.00,,,0.00,654,weatherlink.com 1.10,2015-09-01 17:42:00,
2015-09-01 13:57:00,67.4,59.0,30.00,WSW,242,4.0,9.0,74,0.00,,,0.00,566,weatherlink.com 1.10,2015-09-01 17:57:00,
2015-09-01 14:12:00,68.1,59.0,29.99,SW,234,6.0,10.0,72,0.00,,,0.00,619,weatherlink.com 1.10,2015-09-01 18:12:00,
2015-09-01 14:27:00,68.8,58.0,29.99,WSW,253,7.0,13.0,69,0.00,,,0.00,684,weatherlink.com 1.10,2015-09-01 18:27:00,
2015-09-01 14:42:00,69.4,59.0,29.98,WSW,245,7.0,11.0,70,0.00,,,0.00,608,weatherlink.com 1.10,2015-09-01 18:42:00,
2015-09-01 14:57:00,69.8,60.0,29.98,WSW,239,5.0,14.0,70,0.00,,,0.00,626,weatherlink.com 1.10,2015-09-01 18:57:00,
2015-09-01 15:12:00,70.6,60.0,29.97,SW,229,11.0,14.0,70,0.00,,,0.00,622,weatherlink.com 1.10,2015-09-01 19:12:00,
2015-09-01 15:27:00,70.6,61.0,29.97,West,262,10.0,14.0,72,0.00,,,0.00,587,weatherlink.com 1.10,2015-09-01 19:27:00,
2015-09-01 15:42:00,71.6,61.0,29.96,SW,228,10.0,14.0,70,0.00,,,0.00,541,weatherlink.com 1.10,2015-09-01 19:42:00,
2015-09-01 15:57:00,72.1,61.0,29.95,SW,219,14.0,14.0,69,0.00,,,0.00,487,weatherlink.com 1.10,2015-09-01 19:57:00,
2015-09-01 16:12:00,73.0,62.0,29.95,SW,221,4.0,12.0,69,0.00,,,0.00,441,weatherlink.com 1.10,2015-09-01 20:12:00,
2015-09-01 16:27:00,73.1,62.0,29.94,WSW,239,11.0,14.0,69,0.00,,,0.00,429,weatherlink.com 1.10,2015-09-01 20:27:00,
2015-09-01 16:42:00,73.2,62.0,29.94,WSW,254,9.0,19.0,68,0.00,,,0.00,374,weatherlink.com 1.10,2015-09-01 20:42:00,
2015-09-01 16:57:00,73.5,63.0,29.94,SW,218,7.0,16.0,70,0.00,,,0.00,339,weatherlink.com 1.10,2015-09-01 20:57:00,
2015-09-01 17:12:00,73.6,63.0,29.94,SW,215,7.0,17.0,69,0.00,,,0.00,276,weatherlink.com 1.10,2015-09-01 21:12:00,
2015-09-01 17:27:00,73.9,63.0,29.93,SW,234,13.0,20.0,69,0.00,,,0.00,279,weatherlink.com 1.10,2015-09-01 21:27:00,
2015-09-01 17:42:00,73.9,63.0,29.93,WSW,244,15.0,21.0,69,0.00,,,0.00,197,weatherlink.com 1.10,2015-09-01 21:42:00,
2015-09-01 17:57:00,73.7,64.0,29.93,SW,236,17.0,19.0,71,0.00,,,0.00,160,weatherlink.com 1.10,2015-09-01 21:57:00,
2015-09-01 18:12:00,73.3,64.0,29.93,SW,229,4.0,19.0,72,0.00,,,0.00,56,weatherlink.com 1.10,2015-09-01 22:12:00,
2015-09-01 18:27:00,73.4,63.0,29.92,SW,215,7.0,15.0,71,0.00,,,0.00,70,weatherlink.com 1.10,2015-09-01 22:27:00,
2015-09-01 18:42:00,72.9,63.0,29.92,SSW,196,7.0,14.0,71,0.00,,,0.00,46,weatherlink.com 1.10,2015-09-01 22:42:00,
2015-09-01 18:57:00,71.9,63.0,29.92,South,188,3.0,13.0,73,0.00,,,0.00,32,weatherlink.com 1.10,2015-09-01 22:57:00,
2015-09-01 19:12:00,71.4,62.0,29.93,South,182,8.0,12.0,72,0.00,,,0.00,12,weatherlink.com 1.10,2015-09-01 23:12:00,
2015-09-01 19:27:00,71.4,62.0,29.92,South,180,4.0,12.0,72,0.00,,,0.00,0,weatherlink.com 1.10,2015-09-01 23:27:00,
2015-09-01 19:42:00,70.6,62.0,29.93,SSW,198,7.0,10.0,74,0.00,,,0.00,0,weatherlink.com 1.10,2015-09-01 23:42:00,
2015-09-01 19:57:00,69.4,62.0,29.93,South,178,3.0,9.0,76,0.00,,,0.00,0,weatherlink.com 1.10,2015-09-01 23:57:00,